»·PEaware :: WAT348 KLAS-KRNO

WAT348 :: KLAS-KRNO

FLIGHT INFORMATION

Flight Status: Arrived
Operator:
Walker Air Transport
More flights by this operator :: More flights under this callsign
Pilot: Austin W. (7615)
Aircraft: BOEING 737-800
(B738)
More flights by this aircraft type
Origin: KLAS McCarran Intl
United States
Destination: KRNO Reno/Tahoe Intl
United States
More flights between these airports :: More routes between these airports
Route: +SHEAD1 KENNO KENNO2
File this flight plan on PilotEdge
Remarks: Good morning!
Altitude:
(Current/Filed)
30,000ft
Speed:
(Current/Filed)
473kts
Departed: 08-Nov-20 08:43 AM
Arrived: 08-Nov-20 09:41 AM
Distance/Time
Traveled:
300nm/0:58
Distance/Time
To Go:
Arrived

Flight Plot

Page will automatically refresh every two minutes.

Flight plan parsing failed; only flown route is shown


Map Options




Map Legend


Flown Route
Filed Route
Departure Airport
Arrival Airport
Navaid (VOR, NDB)
Fix

Horizontal Profiles

Position Reports

Time Latitude Longitude Heading Altitude Ground
Speed
08-Nov-20 08:13 36.080204 -115.136102 66 2189ft 0kts
08-Nov-20 08:14 36.080204 -115.136102 66 2189ft 0kts
08-Nov-20 08:15 36.080204 -115.136102 66 2189ft 0kts
08-Nov-20 08:16 36.080204 -115.136102 66 2189ft 0kts
08-Nov-20 08:17 36.080204 -115.136102 66 2189ft 0kts
08-Nov-20 08:18 36.080204 -115.136102 66 2189ft 0kts
08-Nov-20 08:19 36.080204 -115.136102 66 2189ft 0kts
08-Nov-20 08:20 36.080204 -115.136102 66 2189ft 0kts
08-Nov-20 08:21 36.080204 -115.136102 66 2189ft 0kts
08-Nov-20 08:22 36.080204 -115.136102 66 2189ft 0kts
08-Nov-20 08:23 36.080204 -115.136102 66 2189ft 0kts
08-Nov-20 08:24 36.080204 -115.136102 66 2189ft 0kts
08-Nov-20 08:25 36.080204 -115.136102 66 2189ft 0kts
08-Nov-20 08:26 36.080204 -115.136102 66 2189ft 0kts
08-Nov-20 08:27 36.080204 -115.136102 66 2189ft 0kts
08-Nov-20 08:28 36.080204 -115.136102 66 2189ft 0kts
08-Nov-20 08:29 36.080204 -115.136102 66 2189ft 0kts
08-Nov-20 08:30 36.080082 -115.136454 66 2189ft 2kts
08-Nov-20 08:31 36.079947 -115.137154 125 2189ft 2kts
08-Nov-20 08:32 36.080022 -115.137249 136 2189ft 0kts
08-Nov-20 08:33 36.080022 -115.137249 136 2189ft 0kts
08-Nov-20 08:34 36.080022 -115.137250 136 2189ft 0kts
08-Nov-20 08:35 36.080022 -115.137249 136 2189ft 0kts
08-Nov-20 08:36 36.079939 -115.137151 136 2189ft 2kts
08-Nov-20 08:37 36.078957 -115.135922 135 2189ft 9kts
08-Nov-20 08:38 36.078294 -115.131964 89 2189ft 23kts
08-Nov-20 08:39 36.078318 -115.124946 89 2189ft 19kts
08-Nov-20 08:40 36.076784 -115.121238 181 2189ft 8kts
08-Nov-20 08:41 36.076472 -115.121702 268 2188ft 0kts
08-Nov-20 08:42 36.076749 -115.150745 266 2449ft 172kts
08-Nov-20 08:43 36.076894 -115.213507 258 4698ft 201kts
08-Nov-20 08:44 36.038791 -115.270789 198 6236ft 259kts
08-Nov-20 08:45 35.972041 -115.304199 213 7527ft 260kts
08-Nov-20 08:46 35.918820 -115.364903 224 8997ft 255kts
08-Nov-20 08:47 35.885090 -115.441002 264 10619ft 280kts
08-Nov-20 08:48 35.888389 -115.547145 269 10996ft 313kts
08-Nov-20 08:49 35.890660 -115.654598 268 11026ft 315kts
08-Nov-20 08:50 35.892442 -115.763636 268 13783ft 318kts
08-Nov-20 08:51 35.894268 -115.873726 269 16279ft 326kts
08-Nov-20 08:52 35.911329 -115.983986 299 18589ft 344kts
08-Nov-20 08:53 35.981422 -116.070320 310 20615ft 361kts
08-Nov-20 08:54 36.056522 -116.156066 310 22434ft 370kts
08-Nov-20 08:55 36.132989 -116.244115 310 24046ft 379kts
08-Nov-20 08:56 36.211531 -116.334923 310 25418ft 390kts
08-Nov-20 08:57 36.291879 -116.428096 310 26667ft 400kts
08-Nov-20 08:58 36.373851 -116.523416 310 27811ft 410kts
08-Nov-20 08:59 36.457930 -116.621539 310 28876ft 418kts
08-Nov-20 09:00 36.543654 -116.721127 314 29714ft 430kts
08-Nov-20 09:01 36.644062 -116.806345 321 29707ft 437kts
08-Nov-20 09:03 36.746996 -116.886174 322 29707ft 437kts
08-Nov-20 09:04 36.850472 -116.965434 323 29704ft 437kts
08-Nov-20 09:05 36.953883 -117.044560 323 29701ft 436kts
08-Nov-20 09:06 37.056929 -117.123528 323 29697ft 435kts
08-Nov-20 09:07 37.159911 -117.202696 323 29691ft 435kts
08-Nov-20 09:08 37.262871 -117.282124 323 29668ft 435kts
08-Nov-20 09:09 37.357454 -117.374648 316 29661ft 430kts
08-Nov-20 09:10 37.448965 -117.471628 316 29657ft 430kts
08-Nov-20 09:11 37.546683 -117.559900 324 29658ft 433kts
08-Nov-20 09:12 37.648326 -117.641344 324 29660ft 432kts
08-Nov-20 09:13 37.750459 -117.722677 324 29657ft 431kts
08-Nov-20 09:14 37.852119 -117.803654 325 29666ft 432kts
08-Nov-20 09:15 37.953857 -117.884865 325 29673ft 431kts
08-Nov-20 09:16 38.055028 -117.965866 325 29679ft 431kts
08-Nov-20 09:16 38.139882 -118.033999 325 29684ft 431kts
08-Nov-20 09:18 38.257914 -118.129108 325 29690ft 430kts
08-Nov-20 09:18 38.342124 -118.197187 325 29719ft 430kts
08-Nov-20 09:20 38.451971 -118.305039 315 29744ft 425kts
08-Nov-20 09:20 38.523206 -118.391111 315 29739ft 413kts
08-Nov-20 09:22 38.619581 -118.509403 315 29743ft 416kts
08-Nov-20 09:22 38.687953 -118.593956 315 29039ft 403kts
08-Nov-20 09:23 38.766856 -118.692160 314 27751ft 397kts
08-Nov-20 09:24 38.846299 -118.791274 313 25814ft 393kts
08-Nov-20 09:25 38.923104 -118.887100 313 23620ft 378kts
08-Nov-20 09:26 38.997177 -118.979830 313 21486ft 365kts
08-Nov-20 09:27 39.068246 -119.069042 312 19430ft 351kts
08-Nov-20 09:28 39.137428 -119.156754 312 17390ft 360kts
08-Nov-20 09:29 39.206946 -119.244671 313 15548ft 352kts
08-Nov-20 09:30 39.276697 -119.332889 314 13083ft 342kts
08-Nov-20 09:31 39.340231 -119.413398 314 12182ft 296kts
08-Nov-20 09:32 39.403015 -119.476403 324 10894ft 280kts
08-Nov-20 09:33 39.461552 -119.530854 323 10310ft 238kts
08-Nov-20 09:34 39.513710 -119.579721 324 9550ft 238kts
08-Nov-20 09:35 39.563968 -119.626913 324 8414ft 207kts
08-Nov-20 09:36 39.606591 -119.674726 298 7456ft 189kts
08-Nov-20 09:37 39.602446 -119.736548 226 6477ft 187kts
08-Nov-20 09:38 39.562470 -119.768170 192 5815ft 164kts
08-Nov-20 09:39 39.517406 -119.769234 181 4564ft 158kts
08-Nov-20 09:40 39.490342 -119.769275 179 4425ft 26kts
08-Nov-20 09:41 39.489540 -119.771556 345 4425ft 8kts
08-Nov-20 09:42 39.494229 -119.771496 358 4425ft 17kts
08-Nov-20 09:43 39.499233 -119.771509 359 4425ft 21kts
08-Nov-20 09:44 39.503750 -119.772194 270 4425ft 9kts
08-Nov-20 09:45 39.504068 -119.773749 350 4425ft 1kts
08-Nov-20 09:46 39.504386 -119.773768 359 4425ft 0kts
08-Nov-20 09:47 39.504386 -119.773768 359 4425ft 0kts
08-Nov-20 09:48 39.504386 -119.773768 359 4425ft 0kts
08-Nov-20 09:49 39.504386 -119.773768 359 4425ft 0kts
08-Nov-20 09:50 39.504386 -119.773768 359 4425ft 0kts
08-Nov-20 09:51 39.504386 -119.773768 359 4425ft 0kts
08-Nov-20 09:52 39.504386 -119.773768 359 4425ft 0kts
08-Nov-20 09:53 39.504386 -119.773768 359 4425ft 0kts
08-Nov-20 09:54 39.504386 -119.773768 359 4425ft 0kts
08-Nov-20 09:55 39.504386 -119.773768 359 4425ft 0kts

Navigation Log

Ident Type
Flight plan parsing failed, navigation log unavailable